sensor_id;sensor_type;location;lat;lon;timestamp;pressure;altitude;pressure_sealevel;temperature;humidity
73700;BME280;62005;50.082;8.988;2022-12-07T00:50:55;100586.00;;;3.92;87.18
73700;BME280;62005;50.082;8.988;2022-12-07T01:21:02;100604.66;;;4.08;86.82
73700;BME280;62005;50.082;8.988;2022-12-07T01:31:18;100549.38;;;3.70;87.25
73700;BME280;62005;50.082;8.988;2022-12-07T01:41:14;100596.63;;;4.08;87.58
73700;BME280;62005;50.082;8.988;2022-12-07T01:50:36;100555.97;;;3.82;88.23
73700;BME280;62005;50.082;8.988;2022-12-07T01:56:53;100603.63;;;4.09;87.94
73700;BME280;62005;50.082;8.988;2022-12-07T02:14:22;100529.63;;;3.71;88.13
73700;BME280;62005;50.082;8.988;2022-12-07T02:32:03;100509.22;;;3.78;88.31
73700;BME280;62005;50.082;8.988;2022-12-07T04:06:00;100543.25;;;4.37;88.35
73700;BME280;62005;50.082;8.988;2022-12-07T04:22:21;100531.34;;;4.40;87.69
73700;BME280;62005;50.082;8.988;2022-12-07T04:24:46;100516.50;;;4.37;87.70
73700;BME280;62005;50.082;8.988;2022-12-07T04:30:50;100478.22;;;4.14;87.36
73700;BME280;62005;50.082;8.988;2022-12-07T04:33:24;100519.19;;;4.37;87.47
73700;BME280;62005;50.082;8.988;2022-12-07T04:36:47;100531.03;;;4.43;87.22
73700;BME280;62005;50.082;8.988;2022-12-07T04:43:07;100479.88;;;4.15;86.59
73700;BME280;62005;50.082;8.988;2022-12-07T04:49:27;100481.19;;;4.19;86.52
73700;BME280;62005;50.082;8.988;2022-12-07T04:52:24;100499.97;;;4.34;86.83
73700;BME280;62005;50.082;8.988;2022-12-07T05:02:29;100460.53;;;4.13;86.03
73700;BME280;62005;50.082;8.988;2022-12-07T05:19:04;100503.41;;;4.42;85.79
73700;BME280;62005;50.082;8.988;2022-12-07T05:52:00;100494.03;;;4.46;86.18
73700;BME280;62005;50.082;8.988;2022-12-07T05:54:41;100518.06;;;4.54;86.19
73700;BME280;62005;50.082;8.988;2022-12-07T06:32:43;100498.84;;;4.51;86.51
73700;BME280;62005;50.082;8.988;2022-12-07T06:35:28;100520.28;;;4.65;86.35
73700;BME280;62005;50.082;8.988;2022-12-07T06:37:53;100521.94;;;4.66;86.32
73700;BME280;62005;50.082;8.988;2022-12-07T06:40:19;100517.91;;;4.70;85.45
73700;BME280;62005;50.082;8.988;2022-12-07T06:42:44;100525.28;;;4.68;85.72
73700;BME280;62005;50.082;8.988;2022-12-07T06:48:42;100513.72;;;4.68;85.75
73700;BME280;62005;50.082;8.988;2022-12-07T06:58:09;100526.41;;;4.74;85.53
73700;BME280;62005;50.082;8.988;2022-12-07T07:11:19;100536.56;;;4.78;86.05
73700;BME280;62005;50.082;8.988;2022-12-07T07:14:11;100461.66;;;4.33;86.52
73700;BME280;62005;50.082;8.988;2022-12-07T07:16:37;100533.59;;;4.73;85.87
73700;BME280;62005;50.082;8.988;2022-12-07T07:19:02;100513.97;;;4.58;86.36
73700;BME280;62005;50.082;8.988;2022-12-07T07:25:12;100485.72;;;4.41;86.01
73700;BME280;62005;50.082;8.988;2022-12-07T07:28:14;100528.97;;;4.67;86.08
73700;BME280;62005;50.082;8.988;2022-12-07T07:31:05;100518.53;;;4.58;86.26
73700;BME280;62005;50.082;8.988;2022-12-07T07:39:55;100541.53;;;4.81;85.75
73700;BME280;62005;50.082;8.988;2022-12-07T07:42:21;100545.63;;;4.77;85.92
73700;BME280;62005;50.082;8.988;2022-12-07T07:44:46;100550.25;;;4.83;86.14
73700;BME280;62005;50.082;8.988;2022-12-07T07:47:14;100523.63;;;4.67;86.08
73700;BME280;62005;50.082;8.988;2022-12-07T07:55:06;100551.56;;;4.87;85.45
73700;BME280;62005;50.082;8.988;2022-12-07T07:57:35;100551.91;;;4.84;85.37
73700;BME280;62005;50.082;8.988;2022-12-07T08:00:06;100553.22;;;4.88;85.29
73700;BME280;62005;50.082;8.988;2022-12-07T08:02:35;100541.19;;;4.84;86.09
73700;BME280;62005;50.082;8.988;2022-12-07T08:05:01;100547.47;;;4.91;85.76
73700;BME280;62005;50.082;8.988;2022-12-07T08:07:27;100504.22;;;4.65;85.78
73700;BME280;62005;50.082;8.988;2022-12-07T08:10:04;100519.84;;;4.76;85.87
73700;BME280;62005;50.082;8.988;2022-12-07T08:12:30;100502.19;;;4.67;85.87
73700;BME280;62005;50.082;8.988;2022-12-07T08:14:55;100473.91;;;4.50;85.75
73700;BME280;62005;50.082;8.988;2022-12-07T08:17:46;100500.19;;;4.69;85.89
73700;BME280;62005;50.082;8.988;2022-12-07T08:20:33;100505.16;;;4.72;85.45
73700;BME280;62005;50.082;8.988;2022-12-07T08:29:34;100488.81;;;4.67;85.08
73700;BME280;62005;50.082;8.988;2022-12-07T08:32:11;100478.19;;;4.59;85.06
73700;BME280;62005;50.082;8.988;2022-12-07T08:35:01;100485.19;;;4.60;85.71
73700;BME280;62005;50.082;8.988;2022-12-07T08:47:37;100553.16;;;5.11;85.28
73700;BME280;62005;50.082;8.988;2022-12-07T08:50:09;100550.28;;;5.12;85.06
73700;BME280;62005;50.082;8.988;2022-12-07T08:59:04;100567.28;;;5.19;85.08
73700;BME280;62005;50.082;8.988;2022-12-07T09:02:06;100513.69;;;4.90;85.07
73700;BME280;62005;50.082;8.988;2022-12-07T09:04:50;100506.66;;;4.89;85.15
73700;BME280;62005;50.082;8.988;2022-12-07T09:07:42;100556.47;;;5.27;85.10
73700;BME280;62005;50.082;8.988;2022-12-07T09:10:48;100484.31;;;4.82;84.44
73700;BME280;62005;50.082;8.988;2022-12-07T09:16:24;100490.16;;;4.86;85.07
73700;BME280;62005;50.082;8.988;2022-12-07T09:19:13;100475.25;;;4.83;84.80
73700;BME280;62005;50.082;8.988;2022-12-07T09:21:39;100519.25;;;5.03;85.22
73700;BME280;62005;50.082;8.988;2022-12-07T09:24:28;100545.75;;;5.27;85.12
73700;BME280;62005;50.082;8.988;2022-12-07T09:27:44;100508.16;;;5.06;85.14
73700;BME280;62005;50.082;8.988;2022-12-07T09:30:44;100521.38;;;5.22;85.69
73700;BME280;62005;50.082;8.988;2022-12-07T09:33:52;100525.91;;;5.37;85.82
73700;BME280;62005;50.082;8.988;2022-12-07T09:36:30;100520.00;;;5.41;85.20
73700;BME280;62005;50.082;8.988;2022-12-07T09:39:19;100503.16;;;5.32;85.41
73700;BME280;62005;50.082;8.988;2022-12-07T09:42:04;100543.19;;;5.63;85.46
73700;BME280;62005;50.082;8.988;2022-12-07T09:44:39;100511.19;;;5.62;85.64
73700;BME280;62005;50.082;8.988;2022-12-07T09:50:28;100488.34;;;5.66;85.49
73700;BME280;62005;50.082;8.988;2022-12-07T10:04:57;100518.47;;;6.39;83.36
73700;BME280;62005;50.082;8.988;2022-12-07T10:11:37;100462.25;;;6.31;81.41
73700;BME280;62005;50.082;8.988;2022-12-07T10:15:03;100499.16;;;6.50;81.21
73700;BME280;62005;50.082;8.988;2022-12-07T10:17:56;100534.69;;;6.73;81.42
73700;BME280;62005;50.082;8.988;2022-12-07T10:20:31;100489.66;;;6.47;80.76
73700;BME280;62005;50.082;8.988;2022-12-07T10:23:08;100487.16;;;6.46;80.92
73700;BME280;62005;50.082;8.988;2022-12-07T10:25:43;100461.41;;;6.30;80.57
73700;BME280;62005;50.082;8.988;2022-12-07T10:28:36;100460.22;;;6.33;81.45
73700;BME280;62005;50.082;8.988;2022-12-07T10:31:22;100498.03;;;6.59;80.21
73700;BME280;62005;50.082;8.988;2022-12-07T10:40:39;100531.00;;;6.74;80.52
73700;BME280;62005;50.082;8.988;2022-12-07T11:07:44;100501.09;;;6.84;81.80
73700;BME280;62005;50.082;8.988;2022-12-07T11:51:59;100415.28;;;7.10;75.95
73700;BME280;62005;50.082;8.988;2022-12-07T12:01:18;100422.56;;;7.22;74.54
73700;BME280;62005;50.082;8.988;2022-12-07T12:07:23;100438.56;;;7.30;73.07
73700;BME280;62005;50.082;8.988;2022-12-07T13:02:52;100331.44;;;6.87;75.71
73700;BME280;62005;50.082;8.988;2022-12-07T13:12:20;100378.09;;;7.20;73.52
73700;BME280;62005;50.082;8.988;2022-12-07T13:21:55;100340.56;;;6.92;74.97
73700;BME280;62005;50.082;8.988;2022-12-07T13:31:32;100316.72;;;6.76;75.35
73700;BME280;62005;50.082;8.988;2022-12-07T13:41:29;100360.97;;;6.80;78.23
73700;BME280;62005;50.082;8.988;2022-12-07T13:44:20;100364.28;;;6.82;78.26
73700;BME280;62005;50.082;8.988;2022-12-07T13:49:29;100367.16;;;6.74;78.31
73700;BME280;62005;50.082;8.988;2022-12-07T13:52:16;100387.44;;;6.83;79.26
73700;BME280;62005;50.082;8.988;2022-12-07T13:54:56;100368.31;;;6.65;78.52
73700;BME280;62005;50.082;8.988;2022-12-07T13:57:24;100362.06;;;6.58;79.13
73700;BME280;62005;50.082;8.988;2022-12-07T13:59:51;100362.47;;;6.55;79.39
73700;BME280;62005;50.082;8.988;2022-12-07T14:02:27;100342.94;;;6.40;80.54
73700;BME280;62005;50.082;8.988;2022-12-07T14:05:07;100365.31;;;6.47;80.56
73700;BME280;62005;50.082;8.988;2022-12-07T14:07:33;100317.22;;;6.18;80.58
73700;BME280;62005;50.082;8.988;2022-12-07T14:10:06;100385.63;;;6.56;79.61
73700;BME280;62005;50.082;8.988;2022-12-07T14:12:36;100321.28;;;6.14;80.38
73700;BME280;62005;50.082;8.988;2022-12-07T14:15:02;100356.06;;;6.28;80.62
73700;BME280;62005;50.082;8.988;2022-12-07T14:17:28;100367.91;;;6.34;80.12
73700;BME280;62005;50.082;8.988;2022-12-07T14:20:00;100325.78;;;6.07;80.95
73700;BME280;62005;50.082;8.988;2022-12-07T14:22:33;100322.47;;;6.05;80.98
73700;BME280;62005;50.082;8.988;2022-12-07T14:25:20;100390.88;;;6.43;79.83
73700;BME280;62005;50.082;8.988;2022-12-07T14:28:09;100324.53;;;6.03;80.58
73700;BME280;62005;50.082;8.988;2022-12-07T14:30:43;100341.47;;;6.10;80.45
73700;BME280;62005;50.082;8.988;2022-12-07T14:33:09;100365.13;;;6.21;80.75
73700;BME280;62005;50.082;8.988;2022-12-07T14:35:37;100327.72;;;5.92;80.96
73700;BME280;62005;50.082;8.988;2022-12-07T14:38:05;100375.06;;;6.27;80.77
73700;BME280;62005;50.082;8.988;2022-12-07T14:40:32;100351.59;;;6.08;81.15
73700;BME280;62005;50.082;8.988;2022-12-07T14:43:01;100386.44;;;6.29;81.78
73700;BME280;62005;50.082;8.988;2022-12-07T14:45:27;100317.13;;;5.84;81.58
73700;BME280;62005;50.082;8.988;2022-12-07T14:47:52;100341.19;;;5.98;81.76
73700;BME280;62005;50.082;8.988;2022-12-07T14:50:20;100311.09;;;5.82;82.56
73700;BME280;62005;50.082;8.988;2022-12-07T14:52:56;100374.19;;;6.20;83.13
73700;BME280;62005;50.082;8.988;2022-12-07T14:55:26;100374.19;;;6.20;82.92
73700;BME280;62005;50.082;8.988;2022-12-07T14:57:52;100374.56;;;6.17;83.12
73700;BME280;62005;50.082;8.988;2022-12-07T15:00:19;100365.50;;;6.18;82.93
73700;BME280;62005;50.082;8.988;2022-12-07T15:02:46;100304.84;;;5.75;83.89
73700;BME280;62005;50.082;8.988;2022-12-07T15:07:50;100298.19;;;5.71;83.87
73700;BME280;62005;50.082;8.988;2022-12-07T15:10:28;100301.91;;;5.70;84.42
73700;BME280;62005;50.082;8.988;2022-12-07T15:12:58;100326.84;;;5.85;84.06
73700;BME280;62005;50.082;8.988;2022-12-07T15:15:42;100364.63;;;6.11;84.35
73700;BME280;62005;50.082;8.988;2022-12-07T15:18:08;100353.00;;;6.04;84.71
73700;BME280;62005;50.082;8.988;2022-12-07T15:20:33;100356.31;;;6.06;85.21
73700;BME280;62005;50.082;8.988;2022-12-07T15:22:59;100302.31;;;5.67;85.32
73700;BME280;62005;50.082;8.988;2022-12-07T15:25:24;100351.75;;;6.00;85.35
73700;BME280;62005;50.082;8.988;2022-12-07T15:27:50;100366.22;;;6.05;83.89
73700;BME280;62005;50.082;8.988;2022-12-07T15:30:23;100307.69;;;5.67;84.59
73700;BME280;62005;50.082;8.988;2022-12-07T15:32:52;100294.75;;;5.56;84.44
73700;BME280;62005;50.082;8.988;2022-12-07T15:35:23;100349.94;;;5.86;85.14
73700;BME280;62005;50.082;8.988;2022-12-07T15:37:58;100294.75;;;5.56;84.72
73700;BME280;62005;50.082;8.988;2022-12-07T15:40:25;100324.63;;;5.74;85.43
73700;BME280;62005;50.082;8.988;2022-12-07T15:42:53;100318.47;;;5.73;85.14
73700;BME280;62005;50.082;8.988;2022-12-07T15:45:21;100326.69;;;5.72;85.27
73700;BME280;62005;50.082;8.988;2022-12-07T15:47:49;100317.63;;;5.73;85.95
73700;BME280;62005;50.082;8.988;2022-12-07T15:50:19;100282.34;;;5.48;85.08
73700;BME280;62005;50.082;8.988;2022-12-07T15:52:46;100278.81;;;5.48;84.79
73700;BME280;62005;50.082;8.988;2022-12-07T15:55:16;100309.72;;;5.65;84.57
73700;BME280;62005;50.082;8.988;2022-12-07T15:57:45;100270.91;;;5.40;83.99
73700;BME280;62005;50.082;8.988;2022-12-07T16:00:23;100304.09;;;5.60;83.57
73700;BME280;62005;50.082;8.988;2022-12-07T16:02:58;100343.25;;;5.82;83.37
73700;BME280;62005;50.082;8.988;2022-12-07T16:05:26;100272.56;;;5.41;83.14
73700;BME280;62005;50.082;8.988;2022-12-07T16:07:58;100296.84;;;5.54;83.20
73700;BME280;62005;50.082;8.988;2022-12-07T16:10:28;100282.53;;;5.47;83.43
73700;BME280;62005;50.082;8.988;2022-12-07T16:12:55;100285.84;;;5.49;83.74
73700;BME280;62005;50.082;8.988;2022-12-07T16:15:24;100262.34;;;5.29;82.67
73700;BME280;62005;50.082;8.988;2022-12-07T16:18:02;100328.47;;;5.65;83.87
73700;BME280;62005;50.082;8.988;2022-12-07T16:20:48;100327.44;;;5.66;82.85
73700;BME280;62005;50.082;8.988;2022-12-07T16:23:16;100292.59;;;5.45;83.64
73700;BME280;62005;50.082;8.988;2022-12-07T16:25:47;100302.03;;;5.41;83.56
73700;BME280;62005;50.082;8.988;2022-12-07T16:28:12;100301.28;;;5.47;83.62
73700;BME280;62005;50.082;8.988;2022-12-07T16:30:40;100288.03;;;5.39;83.78
73700;BME280;62005;50.082;8.988;2022-12-07T16:33:05;100311.63;;;5.50;83.71
73700;BME280;62005;50.082;8.988;2022-12-07T16:35:34;100294.63;;;5.43;83.92
73700;BME280;62005;50.082;8.988;2022-12-07T16:38:05;100257.31;;;5.20;84.67
73700;BME280;62005;50.082;8.988;2022-12-07T16:40:38;100309.97;;;5.49;84.30
73700;BME280;62005;50.082;8.988;2022-12-07T16:43:03;100251.50;;;5.16;84.42
73700;BME280;62005;50.082;8.988;2022-12-07T16:45:39;100261.84;;;5.19;84.86
73700;BME280;62005;50.082;8.988;2022-12-07T16:48:29;100266.06;;;5.28;84.43
73700;BME280;62005;50.082;8.988;2022-12-07T16:50:55;100314.69;;;5.47;84.34
73700;BME280;62005;50.082;8.988;2022-12-07T16:53:24;100259.94;;;5.13;84.28
73700;BME280;62005;50.082;8.988;2022-12-07T16:55:56;100255.56;;;5.12;84.06
73700;BME280;62005;50.082;8.988;2022-12-07T16:58:28;100254.31;;;5.08;84.31
73700;BME280;62005;50.082;8.988;2022-12-07T17:00:58;100270.91;;;5.18;83.90
73700;BME280;62005;50.082;8.988;2022-12-07T17:03:31;100284.56;;;5.23;84.27
73700;BME280;62005;50.082;8.988;2022-12-07T17:06:10;100249.34;;;5.05;84.04
73700;BME280;62005;50.082;8.988;2022-12-07T17:08:46;100282.28;;;5.20;84.68
73700;BME280;62005;50.082;8.988;2022-12-07T17:11:23;100335.94;;;5.48;85.21
73700;BME280;62005;50.082;8.988;2022-12-07T17:13:53;100255.06;;;5.02;84.39
73700;BME280;62005;50.082;8.988;2022-12-07T17:16:41;100329.75;;;5.48;84.81
73700;BME280;62005;50.082;8.988;2022-12-07T17:19:14;100274.97;;;5.14;85.02
73700;BME280;62005;50.082;8.988;2022-12-07T17:21:41;100291.75;;;5.23;85.55
73700;BME280;62005;50.082;8.988;2022-12-07T17:24:08;100321.91;;;5.46;85.14
73700;BME280;62005;50.082;8.988;2022-12-07T17:26:34;100316.84;;;5.37;85.83
73700;BME280;62005;50.082;8.988;2022-12-07T17:28:59;100269.09;;;5.04;85.77
73700;BME280;62005;50.082;8.988;2022-12-07T17:31:25;100259.16;;;4.98;85.75
73700;BME280;62005;50.082;8.988;2022-12-07T17:33:57;100329.69;;;5.41;85.71
73700;BME280;62005;50.082;8.988;2022-12-07T17:36:28;100245.88;;;4.90;86.17
73700;BME280;62005;50.082;8.988;2022-12-07T17:38:57;100310.59;;;5.29;86.03
73700;BME280;62005;50.082;8.988;2022-12-07T17:41:29;100245.50;;;4.93;86.28
73700;BME280;62005;50.082;8.988;2022-12-07T17:44:15;100272.03;;;5.09;85.74
73700;BME280;62005;50.082;8.988;2022-12-07T17:46:45;100288.25;;;5.22;85.97
73700;BME280;62005;50.082;8.988;2022-12-07T17:49:11;100240.97;;;4.94;85.99
73700;BME280;62005;50.082;8.988;2022-12-07T17:51:45;100248.03;;;5.01;86.03
73700;BME280;62005;50.082;8.988;2022-12-07T17:54:29;100284.94;;;5.20;85.91
73700;BME280;62005;50.082;8.988;2022-12-07T17:56:55;100288.69;;;5.26;86.10
73700;BME280;62005;50.082;8.988;2022-12-07T17:59:23;100290.13;;;5.22;86.21
73700;BME280;62005;50.082;8.988;2022-12-07T18:01:56;100274.59;;;5.17;86.78
73700;BME280;62005;50.082;8.988;2022-12-07T18:04:26;100226.94;;;4.92;85.91
73700;BME280;62005;50.082;8.988;2022-12-07T18:06:54;100239.75;;;4.96;86.58
73700;BME280;62005;50.082;8.988;2022-12-07T18:09:19;100270.00;;;5.11;86.46
73700;BME280;62005;50.082;8.988;2022-12-07T18:11:46;100272.28;;;5.14;86.16
73700;BME280;62005;50.082;8.988;2022-12-07T18:14:12;100299.09;;;5.35;86.47
73700;BME280;62005;50.082;8.988;2022-12-07T18:16:40;100226.09;;;4.91;86.89
73700;BME280;62005;50.082;8.988;2022-12-07T18:19:09;100268.97;;;5.12;86.20
73700;BME280;62005;50.082;8.988;2022-12-07T18:21:37;100249.34;;;5.05;86.77
73700;BME280;62005;50.082;8.988;2022-12-07T18:24:14;100226.94;;;4.92;86.05
73700;BME280;62005;50.082;8.988;2022-12-07T18:26:40;100272.94;;;5.16;86.81
73700;BME280;62005;50.082;8.988;2022-12-07T18:29:09;100291.63;;;5.31;86.63
73700;BME280;62005;50.082;8.988;2022-12-07T18:31:37;100280.59;;;5.19;86.81
73700;BME280;62005;50.082;8.988;2022-12-07T18:34:04;100292.47;;;5.31;87.12
73700;BME280;62005;50.082;8.988;2022-12-07T18:36:33;100291.19;;;5.27;86.40
73700;BME280;62005;50.082;8.988;2022-12-07T18:38:59;100235.16;;;4.90;86.89
73700;BME280;62005;50.082;8.988;2022-12-07T18:41:26;100240.13;;;4.93;87.59
73700;BME280;62005;50.082;8.988;2022-12-07T18:43:52;100284.94;;;5.20;87.25
73700;BME280;62005;50.082;8.988;2022-12-07T18:46:20;100250.91;;;5.00;87.11
73700;BME280;62005;50.082;8.988;2022-12-07T18:48:45;100292.41;;;5.25;87.49
73700;BME280;62005;50.082;8.988;2022-12-07T18:51:14;100278.69;;;5.13;86.79
73700;BME280;62005;50.082;8.988;2022-12-07T18:53:43;100291.97;;;5.21;87.17
73700;BME280;62005;50.082;8.988;2022-12-07T18:58:42;100215.25;;;4.78;87.01
73700;BME280;62005;50.082;8.988;2022-12-07T19:01:29;100211.03;;;4.69;86.33
73700;BME280;62005;50.082;8.988;2022-12-07T19:03:56;100217.66;;;4.73;86.40
73700;BME280;62005;50.082;8.988;2022-12-07T19:06:24;100247.13;;;4.94;86.88
73700;BME280;62005;50.082;8.988;2022-12-07T19:08:52;100205.69;;;4.69;86.60
73700;BME280;62005;50.082;8.988;2022-12-07T19:11:19;100209.75;;;4.65;86.30
73700;BME280;62005;50.082;8.988;2022-12-07T19:14:07;100201.72;;;4.65;87.01
73700;BME280;62005;50.082;8.988;2022-12-07T19:16:32;100288.09;;;5.09;86.10
73700;BME280;62005;50.082;8.988;2022-12-07T19:18:58;100233.59;;;4.81;86.83
73700;BME280;62005;50.082;8.988;2022-12-07T19:21:23;100277.78;;;5.06;86.55
73700;BME280;62005;50.082;8.988;2022-12-07T19:23:50;100270.50;;;5.00;86.78
73700;BME280;62005;50.082;8.988;2022-12-07T19:26:16;100235.63;;;4.79;86.46
73700;BME280;62005;50.082;8.988;2022-12-07T19:28:41;100279.16;;;5.02;86.11
73700;BME280;62005;50.082;8.988;2022-12-07T19:31:08;100264.88;;;4.95;86.29
73700;BME280;62005;50.082;8.988;2022-12-07T19:33:39;100247.72;;;4.90;86.92
73700;BME280;62005;50.082;8.988;2022-12-07T19:45:22;100274.84;;;5.01;86.87
73700;BME280;62005;50.082;8.988;2022-12-07T19:51:20;100230.00;;;4.74;86.46
73700;BME280;62005;50.082;8.988;2022-12-07T19:53:46;100186.78;;;4.56;86.66
73700;BME280;62005;50.082;8.988;2022-12-07T19:56:19;100217.00;;;4.71;86.61
73700;BME280;62005;50.082;8.988;2022-12-07T19:58:47;100268.22;;;4.97;86.80
73700;BME280;62005;50.082;8.988;2022-12-07T20:01:13;100166.25;;;4.42;86.97
73700;BME280;62005;50.082;8.988;2022-12-07T20:03:42;100206.81;;;4.60;86.80
73700;BME280;62005;50.082;8.988;2022-12-07T20:06:13;100208.44;;;4.61;86.70
73700;BME280;62005;50.082;8.988;2022-12-07T20:08:41;100173.31;;;4.50;87.03
73700;BME280;62005;50.082;8.988;2022-12-07T20:11:19;100189.44;;;4.56;86.88
73700;BME280;62005;50.082;8.988;2022-12-07T20:14:05;100236.94;;;4.83;86.78
73700;BME280;62005;50.082;8.988;2022-12-07T20:16:32;100205.59;;;4.63;87.06
73700;BME280;62005;50.082;8.988;2022-12-07T20:18:58;100177.41;;;4.46;86.86
73700;BME280;62005;50.082;8.988;2022-12-07T20:21:24;100202.47;;;4.59;87.61
73700;BME280;62005;50.082;8.988;2022-12-07T20:23:53;100173.63;;;4.40;86.92
73700;BME280;62005;50.082;8.988;2022-12-07T20:26:22;100214.44;;;4.63;86.54
73700;BME280;62005;50.082;8.988;2022-12-07T20:28:50;100185.25;;;4.47;86.80
73700;BME280;62005;50.082;8.988;2022-12-07T20:31:45;100194.81;;;4.56;86.98
73700;BME280;62005;50.082;8.988;2022-12-07T20:34:46;100168.00;;;4.35;87.48
73700;BME280;62005;50.082;8.988;2022-12-07T20:37:15;100178.59;;;4.43;86.60
73700;BME280;62005;50.082;8.988;2022-12-07T20:39:42;100184.59;;;4.45;86.74
73700;BME280;62005;50.082;8.988;2022-12-07T20:42:09;100188.94;;;4.46;86.77
73700;BME280;62005;50.082;8.988;2022-12-07T20:44:55;100169.41;;;4.31;87.03
73700;BME280;62005;50.082;8.988;2022-12-07T20:47:20;100186.88;;;4.48;87.31
73700;BME280;62005;50.082;8.988;2022-12-07T20:49:46;100155.38;;;4.29;86.71
73700;BME280;62005;50.082;8.988;2022-12-07T20:52:11;100231.03;;;4.73;86.38
73700;BME280;62005;50.082;8.988;2022-12-07T20:54:37;100198.78;;;4.60;86.50
73700;BME280;62005;50.082;8.988;2022-12-07T20:57:03;100182.75;;;4.46;86.65
73700;BME280;62005;50.082;8.988;2022-12-07T20:59:28;100168.28;;;4.40;87.10
73700;BME280;62005;50.082;8.988;2022-12-07T21:01:57;100178.25;;;4.46;87.11
73700;BME280;62005;50.082;8.988;2022-12-07T21:04:22;100196.03;;;4.54;86.67
73700;BME280;62005;50.082;8.988;2022-12-07T21:06:50;100178.25;;;4.46;86.61
73700;BME280;62005;50.082;8.988;2022-12-07T21:09:18;100173.63;;;4.40;86.52
73700;BME280;62005;50.082;8.988;2022-12-07T21:11:45;100155.38;;;4.29;87.20
73700;BME280;62005;50.082;8.988;2022-12-07T21:14:11;100201.44;;;4.60;86.70
73700;BME280;62005;50.082;8.988;2022-12-07T21:16:36;100162.91;;;4.40;87.24
73700;BME280;62005;50.082;8.988;2022-12-07T21:19:04;100187.81;;;4.55;87.13
73700;BME280;62005;50.082;8.988;2022-12-07T21:21:30;100136.41;;;4.24;86.63
73700;BME280;62005;50.082;8.988;2022-12-07T21:23:58;100216.41;;;4.69;87.12
73700;BME280;62005;50.082;8.988;2022-12-07T21:26:25;100205.69;;;4.69;86.88
73700;BME280;62005;50.082;8.988;2022-12-07T21:29:09;100136.41;;;4.24;87.53
73700;BME280;62005;50.082;8.988;2022-12-07T21:31:35;100162.91;;;4.40;86.91
73700;BME280;62005;50.082;8.988;2022-12-07T21:34:01;100190.09;;;4.58;87.41
73700;BME280;62005;50.082;8.988;2022-12-07T21:36:27;100200.06;;;4.64;86.82
73700;BME280;62005;50.082;8.988;2022-12-07T21:38:53;100196.16;;;4.67;87.37
73700;BME280;62005;50.082;8.988;2022-12-07T21:41:23;100190.34;;;4.63;86.88
73700;BME280;62005;50.082;8.988;2022-12-07T21:43:59;100117.84;;;4.23;86.68
73700;BME280;62005;50.082;8.988;2022-12-07T21:46:26;100105.06;;;4.18;87.46
73700;BME280;62005;50.082;8.988;2022-12-07T21:48:57;100151.03;;;4.43;87.17
73700;BME280;62005;50.082;8.988;2022-12-07T21:51:27;100187.69;;;4.63;86.50
73700;BME280;62005;50.082;8.988;2022-12-07T21:53:54;100169.91;;;4.56;86.86
73700;BME280;62005;50.082;8.988;2022-12-07T21:56:25;100168.41;;;4.53;86.64
73700;BME280;62005;50.082;8.988;2022-12-07T21:58:57;100168.81;;;4.50;86.68
73700;BME280;62005;50.082;8.988;2022-12-07T22:01:24;100157.63;;;4.47;86.82
73700;BME280;62005;50.082;8.988;2022-12-07T22:03:50;100174.03;;;4.58;86.88
73700;BME280;62005;50.082;8.988;2022-12-07T22:06:20;100162.81;;;4.48;86.67
73700;BME280;62005;50.082;8.988;2022-12-07T22:12:29;100162.19;;;4.46;87.08
73700;BME280;62005;50.082;8.988;2022-12-07T22:18:07;100119.25;;;4.19;86.99
73700;BME280;62005;50.082;8.988;2022-12-07T22:20:33;100155.53;;;4.42;87.39
73700;BME280;62005;50.082;8.988;2022-12-07T22:22:59;100139.97;;;4.31;87.07
73700;BME280;62005;50.082;8.988;2022-12-07T22:25:24;100164.22;;;4.44;87.08
73700;BME280;62005;50.082;8.988;2022-12-07T22:27:52;100171.28;;;4.52;87.14
73700;BME280;62005;50.082;8.988;2022-12-07T22:30:17;100156.84;;;4.46;87.01
73700;BME280;62005;50.082;8.988;2022-12-07T22:32:43;100154.31;;;4.45;86.79
73700;BME280;62005;50.082;8.988;2022-12-07T22:35:08;100170.44;;;4.51;86.43
73700;BME280;62005;50.082;8.988;2022-12-07T22:37:33;100162.19;;;4.46;87.19
73700;BME280;62005;50.082;8.988;2022-12-07T22:39:59;100165.09;;;4.51;87.07
73700;BME280;62005;50.082;8.988;2022-12-07T22:42:24;100144.44;;;4.45;87.14
73700;BME280;62005;50.082;8.988;2022-12-07T22:44:50;100142.44;;;4.47;86.91
73700;BME280;62005;50.082;8.988;2022-12-07T22:47:15;100154.38;;;4.51;87.22
73700;BME280;62005;50.082;8.988;2022-12-07T22:49:41;100157.34;;;4.56;86.95
73700;BME280;62005;50.082;8.988;2022-12-07T22:52:07;100153.66;;;4.57;87.05
73700;BME280;62005;50.082;8.988;2022-12-07T22:54:32;100138.72;;;4.48;87.63
73700;BME280;62005;50.082;8.988;2022-12-07T22:57:06;100142.44;;;4.47;86.96
73700;BME280;62005;50.082;8.988;2022-12-07T22:59:33;100128.41;;;4.45;86.86
73700;BME280;62005;50.082;8.988;2022-12-07T23:02:08;100150.97;;;4.57;86.97
73700;BME280;62005;50.082;8.988;2022-12-07T23:04:33;100129.69;;;4.49;86.56
73700;BME280;62005;50.082;8.988;2022-12-07T23:06:58;100130.31;;;4.51;86.75
73700;BME280;62005;50.082;8.988;2022-12-07T23:09:27;100114.44;;;4.50;86.58
73700;BME280;62005;50.082;8.988;2022-12-07T23:11:55;100099.09;;;4.37;87.10
73700;BME280;62005;50.082;8.988;2022-12-07T23:14:39;100130.94;;;4.53;86.41
73700;BME280;62005;50.082;8.988;2022-12-07T23:17:05;100126.88;;;4.57;86.36
73700;BME280;62005;50.082;8.988;2022-12-07T23:19:31;100110.13;;;4.49;86.34
73700;BME280;62005;50.082;8.988;2022-12-07T23:21:56;100113.63;;;4.49;86.75
73700;BME280;62005;50.082;8.988;2022-12-07T23:24:25;100046.94;;;4.12;86.75
73700;BME280;62005;50.082;8.988;2022-12-07T23:27:00;100044.66;;;4.09;86.54
73700;BME280;62005;50.082;8.988;2022-12-07T23:29:26;100069.78;;;4.29;85.79
73700;BME280;62005;50.082;8.988;2022-12-07T23:32:05;100071.03;;;4.33;86.72
73700;BME280;62005;50.082;8.988;2022-12-07T23:34:33;100052.19;;;4.20;86.38
73700;BME280;62005;50.082;8.988;2022-12-07T23:36:58;100057.78;;;4.25;85.94